Kine — C6WT4 — position and weather

sailwx.info

Track history (hours):
 
Tides and Currents Weather Stations Pressure Air Temp Water Temp Dewpoint Dewpoint Depression Visibility Wind Speed Wind Dir Waves Ship Positions

Kine

Last reported at 2016-May-26 13:33 UTC. Time now 2016-May-26 14:31 UTC.
Position N 57°45' E 010°47'.

Length 89 m; draft 4 m.

Type: Cargo ship. MMSI: 311117000.

Date/timePositionNaut miles runAvg speedWind from/ knotsBaromVisibWave heightAir tempDewpointWater temp
2016-May-26 13:33N 57°45' E 010°47'7 6.3
2016-May-26 12:31N 57°41' E 010°36'0 0.1
2016-May-26 11:25N 57°41' E 010°36'6 6.8
2016-May-26 10:33N 57°38' E 010°45'1010.2
2016-May-26 09:33N 57°32' E 011°01'1110.6
2016-May-26 08:33N 57°26' E 011°17'1010.3
2016-May-26 07:33N 57°19' E 011°31'10 9.8
2016-May-26 06:33N 57°11' E 011°40'1010.2
2016-May-26 05:33N 57°01' E 011°47'1010.2
2016-May-26 04:33N 56°52' E 011°54'10 9.9
2016-May-26 03:33N 56°43' E 012°02'1010.2
2016-May-26 02:33N 56°34' E 012°11'2211.1
2016-May-26 00:32N 56°13' E 012°27'1111.4
2016-May-25 23:33N 56°04' E 012°38'1111.2
2016-May-25 22:33N 55°53' E 012°44'1111.3
2016-May-25 21:33N 55°42' E 012°41'1111.3
2016-May-25 20:33N 55°31' E 012°43'1010.4
2016-May-25 19:33N 55°21' E 012°41'9 9.5
2016-May-25 18:33N 55°16' E 012°56'1010.1
2016-May-25 17:33N 55°15' E 013°14'1010.1
2016-May-25 16:33N 55°14' E 013°31'1010.4
2016-May-25 15:33N 55°13' E 013°49'1010.3
2016-May-25 14:33N 55°12' E 014°07'1110.7
2016-May-25 13:33N 55°06' E 014°23'1010.4
2016-May-25 12:33N 54°60' E 014°38'10 9.8
2016-May-25 11:33N 54°57' E 014°54'1010.4
2016-May-25 10:33N 54°57' E 015°12'1010.5
2016-May-25 09:33N 54°57' E 015°31'6110.2
2016-May-25 03:33N 54°57' E 017°18'1010.2
2016-May-25 02:33N 54°56' E 017°35'1010.1
2016-May-25 01:33N 54°56' E 017°53'1010.1
2016-May-25 00:34N 54°56' E 018°10'9 9.5
2016-May-24 23:33N 54°53' E 018°26'1010.5
2016-May-24 22:33N 54°47' E 018°41'1110.6
2016-May-24 21:33N 54°41' E 018°56'9 9.4
2016-May-24 20:33N 54°32' E 018°49'9 9.0
2016-May-24 19:33N 54°25' E 018°39'2 2.1
2016-May-24 18:32N 54°23' E 018°40'0 0.0
2016-May-24 17:32N 54°23' E 018°40'0 0.0
2016-May-24 16:32N 54°23' E 018°40'0 0.0
2016-May-24 15:32N 54°23' E 018°40'0 0.0
2016-May-24 14:32N 54°23' E 018°40'0 0.0
2016-May-24 13:32N 54°23' E 018°40'0 0.0
2016-May-24 12:32N 54°23' E 018°40'0 0.0
2016-May-24 11:32N 54°23' E 018°40'0 0.0
2016-May-24 10:32N 54°23' E 018°40'0 0.0
2016-May-24 09:32N 54°23' E 018°40'0 0.0
2016-May-24 08:32N 54°23' E 018°40'0 0.0
2016-May-24 07:32N 54°23' E 018°40'0 0.0
2016-May-24 06:32N 54°23' E 018°40'0 0.0
2016-May-24 05:32N 54°23' E 018°40'0 0.0
2016-May-24 04:32N 54°23' E 018°40'0 0.0
2016-May-24 03:32N 54°23' E 018°40'0 0.0
2016-May-24 02:32N 54°23' E 018°40'0 0.0
2016-May-24 01:32N 54°23' E 018°40'0 0.0
2016-May-24 00:32N 54°23' E 018°40'0 0.0
2016-May-23 23:32N 54°23' E 018°40'0 0.0
2016-May-23 22:32N 54°23' E 018°40'0 0.0
2016-May-23 21:32N 54°23' E 018°40'0 0.0
2016-May-23 20:32N 54°23' E 018°40'0 0.0
2016-May-23 19:32N 54°23' E 018°40'0 0.0
2016-May-23 18:32N 54°23' E 018°40'0 0.0
2016-May-23 17:32N 54°23' E 018°40'0 0.0
2016-May-23 16:32N 54°23' E 018°40'0 0.0
2016-May-23 15:32N 54°23' E 018°40'0 0.0
2016-May-23 14:32N 54°23' E 018°40'0 0.0
2016-May-23 13:32N 54°23' E 018°40'0 0.0
2016-May-23 12:32N 54°23' E 018°40'0 0.0
2016-May-23 11:32N 54°23' E 018°40'0 0.0
2016-May-23 10:29N 54°23' E 018°40'0 0.0
2016-May-23 09:32N 54°23' E 018°40'0 0.0
2016-May-23 08:32N 54°23' E 018°40'0 0.0
2016-May-23 07:32N 54°23' E 018°40'0 0.0
2016-May-23 06:32N 54°23' E 018°40'0 0.0
2016-May-23 05:32N 54°23' E 018°40'0 0.0
2016-May-23 04:32N 54°23' E 018°40'1 1.1
2016-May-23 03:33N 54°24' E 018°40'3 2.6
2016-May-23 02:32N 54°27' E 018°39'0 0.0
2016-May-23 01:32N 54°27' E 018°39'0 0.0
2016-May-23 00:32N 54°27' E 018°39'0 0.0
2016-May-22 23:32N 54°27' E 018°39'0 0.0
2016-May-22 22:32N 54°27' E 018°39'0 0.0
2016-May-22 21:32N 54°27' E 018°39'0 0.0
2016-May-22 20:32N 54°27' E 018°39'0 0.0
2016-May-22 19:32N 54°27' E 018°39'0 0.1
2016-May-22 18:33N 54°27' E 018°39'8 8.4
2016-May-22 17:33N 54°33' E 018°49'8 7.8
2016-May-22 16:33N 54°40' E 018°53'9 9.3
2016-May-22 15:33N 54°46' E 018°41'9 9.5
2016-May-22 14:33N 54°52' E 018°27'9 9.5
2016-May-22 13:33N 54°53' E 018°11'9 9.4
2016-May-22 12:33N 54°53' E 017°55'69 9.9
2016-May-22 05:33N 54°54' E 015°54'1110.1
2016-May-22 04:29N 54°55' E 015°36'910.0
2016-May-22 03:33N 54°56' E 015°20'1010.2
2016-May-22 02:33N 54°57' E 015°02'1010.1
2016-May-22 01:34N 54°58' E 014°44'1010.0
2016-May-22 00:33N 55°02' E 014°29'10 9.8
2016-May-21 23:33N 55°07' E 014°14'10 9.7
2016-May-21 22:33N 55°10' E 013°58'10 9.9
2016-May-21 21:33N 55°11' E 013°41'1010.0
2016-May-21 20:33N 55°12' E 013°23'1010.2
2016-May-21 19:33N 55°14' E 013°06'10 9.8
2016-May-21 18:33N 55°16' E 012°49'8 8.0
2016-May-21 17:33N 55°22' E 012°39'10 9.8
2016-May-21 16:33N 55°31' E 012°42'9 9.1
2016-May-21 15:33N 55°40' E 012°41'9 9.0
2016-May-21 14:33N 55°49' E 012°41'9 9.3
2016-May-21 13:33N 55°59' E 012°38'8 8.4
2016-May-21 12:33N 56°06' E 012°32'1010.5
2016-May-21 11:33N 56°12' E 012°17'29 9.5
2016-May-21 08:33N 56°38' E 011°55'1110.8
2016-May-21 07:33N 56°49' E 011°49'1110.6
2016-May-21 06:33N 56°59' E 011°43'1010.2
2016-May-21 05:33N 57°08' E 011°37'1110.5
2016-May-21 04:33N 57°18' E 011°30'1110.6
2016-May-21 03:33N 57°28' E 011°23'1110.6
2016-May-21 02:33N 57°38' E 011°18'1010.2
2016-May-21 01:33N 57°48' E 011°14'10 9.6
2016-May-21 00:33N 57°58' E 011°09'10 9.5
2016-May-20 23:33N 58°07' E 011°06'9 9.1
2016-May-20 22:33N 58°16' E 011°05'8 8.3
2016-May-20 21:33N 58°24' E 011°07'8 8.5
2016-May-20 20:33N 58°33' E 011°07'9 9.1
2016-May-20 19:33N 58°42' E 011°04'8 8.3
2016-May-20 18:33N 58°50' E 011°06'10 9.6
2016-May-20 17:34N 58°59' E 011°01'9 9.0
2016-May-20 16:33N 59°05' E 010°48'9 9.2
2016-May-20 15:33N 59°14' E 010°43'9 9.3
2016-May-20 14:33N 59°23' E 010°36'9 8.7
2016-May-20 13:33N 59°32' E 010°35'9 9.3
2016-May-20 12:33N 59°41' E 010°37'9 8.7
2016-May-20 11:33N 59°50' E 010°35'  
2016-May-17 06:33N 59°53' E 010°40'9 8.8
2016-May-17 05:29N 59°44' E 010°35'8 8.2
2016-May-17 04:34N 59°37' E 010°38'9 8.9
2016-May-17 03:34N 59°28' E 010°35'9 8.8
2016-May-17 02:34N 59°19' E 010°37'9 9.1
2016-May-17 01:34N 59°10' E 010°39'9 8.8
2016-May-17 00:33N 59°01' E 010°36'9 8.8
2016-May-16 23:34N 58°53' E 010°41'8 8.2
2016-May-16 22:33N 58°45' E 010°46'8 8.3
2016-May-16 21:33N 58°37' E 010°51'9 8.7
2016-May-16 20:34N 58°29' E 010°56'8 8.5
2016-May-16 19:34N 58°21' E 011°01'9 8.9
2016-May-16 18:33N 58°12' E 011°06'8 8.3
2016-May-16 17:33N 58°04' E 011°10'8 8.1
2016-May-16 16:34N 57°57' E 011°14'8 8.1
2016-May-16 15:34N 57°49' E 011°17'8 7.7
2016-May-16 14:34N 57°41' E 011°21'  
Track history (hours):
 
Tides and Currents Weather Stations Pressure Air Temp Water Temp Dewpoint Dewpoint Depression Visibility Wind Speed Wind Dir Waves Ship Positions

Kine

Last reported at 2016-May-26 13:33 UTC. Time now 2016-May-26 14:31 UTC.
Position N 57°45' E 010°47'.

Length 89 m; draft 4 m.

Type: Cargo ship. MMSI: 311117000.

Date/timePositionNaut miles runAvg speedWind from/ knotsBaromVisibWave heightAir tempDewpointWater temp
2016-May-26 13:33N 57°45' E 010°47'7 6.3
2016-May-26 12:31N 57°41' E 010°36'0 0.1
2016-May-26 11:25N 57°41' E 010°36'6 6.8
2016-May-26 10:33N 57°38' E 010°45'1010.2
2016-May-26 09:33N 57°32' E 011°01'1110.6
2016-May-26 08:33N 57°26' E 011°17'1010.3
2016-May-26 07:33N 57°19' E 011°31'10 9.8
2016-May-26 06:33N 57°11' E 011°40'1010.2
2016-May-26 05:33N 57°01' E 011°47'1010.2
2016-May-26 04:33N 56°52' E 011°54'10 9.9
2016-May-26 03:33N 56°43' E 012°02'1010.2
2016-May-26 02:33N 56°34' E 012°11'2211.1
2016-May-26 00:32N 56°13' E 012°27'1111.4
2016-May-25 23:33N 56°04' E 012°38'1111.2
2016-May-25 22:33N 55°53' E 012°44'1111.3
2016-May-25 21:33N 55°42' E 012°41'1111.3
2016-May-25 20:33N 55°31' E 012°43'1010.4
2016-May-25 19:33N 55°21' E 012°41'9 9.5
2016-May-25 18:33N 55°16' E 012°56'1010.1
2016-May-25 17:33N 55°15' E 013°14'1010.1
2016-May-25 16:33N 55°14' E 013°31'1010.4
2016-May-25 15:33N 55°13' E 013°49'1010.3
2016-May-25 14:33N 55°12' E 014°07'1110.7
2016-May-25 13:33N 55°06' E 014°23'1010.4
2016-May-25 12:33N 54°60' E 014°38'10 9.8
2016-May-25 11:33N 54°57' E 014°54'1010.4
2016-May-25 10:33N 54°57' E 015°12'1010.5
2016-May-25 09:33N 54°57' E 015°31'6110.2
2016-May-25 03:33N 54°57' E 017°18'1010.2
2016-May-25 02:33N 54°56' E 017°35'1010.1
2016-May-25 01:33N 54°56' E 017°53'1010.1
2016-May-25 00:34N 54°56' E 018°10'9 9.5
2016-May-24 23:33N 54°53' E 018°26'1010.5
2016-May-24 22:33N 54°47' E 018°41'1110.6
2016-May-24 21:33N 54°41' E 018°56'9 9.4
2016-May-24 20:33N 54°32' E 018°49'9 9.0
2016-May-24 19:33N 54°25' E 018°39'2 2.1
2016-May-24 18:32N 54°23' E 018°40'0 0.0
2016-May-24 17:32N 54°23' E 018°40'0 0.0
2016-May-24 16:32N 54°23' E 018°40'0 0.0
2016-May-24 15:32N 54°23' E 018°40'0 0.0
2016-May-24 14:32N 54°23' E 018°40'0 0.0
2016-May-24 13:32N 54°23' E 018°40'0 0.0
2016-May-24 12:32N 54°23' E 018°40'0 0.0
2016-May-24 11:32N 54°23' E 018°40'0 0.0
2016-May-24 10:32N 54°23' E 018°40'0 0.0
2016-May-24 09:32N 54°23' E 018°40'0 0.0
2016-May-24 08:32N 54°23' E 018°40'0 0.0
2016-May-24 07:32N 54°23' E 018°40'0 0.0
2016-May-24 06:32N 54°23' E 018°40'0 0.0
2016-May-24 05:32N 54°23' E 018°40'0 0.0
2016-May-24 04:32N 54°23' E 018°40'0 0.0
2016-May-24 03:32N 54°23' E 018°40'0 0.0
2016-May-24 02:32N 54°23' E 018°40'0 0.0
2016-May-24 01:32N 54°23' E 018°40'0 0.0
2016-May-24 00:32N 54°23' E 018°40'0 0.0
2016-May-23 23:32N 54°23' E 018°40'0 0.0
2016-May-23 22:32N 54°23' E 018°40'0 0.0
2016-May-23 21:32N 54°23' E 018°40'0 0.0
2016-May-23 20:32N 54°23' E 018°40'0 0.0
2016-May-23 19:32N 54°23' E 018°40'0 0.0
2016-May-23 18:32N 54°23' E 018°40'0 0.0
2016-May-23 17:32N 54°23' E 018°40'0 0.0
2016-May-23 16:32N 54°23' E 018°40'0 0.0
2016-May-23 15:32N 54°23' E 018°40'0 0.0
2016-May-23 14:32N 54°23' E 018°40'0 0.0
2016-May-23 13:32N 54°23' E 018°40'0 0.0
2016-May-23 12:32N 54°23' E 018°40'0 0.0
2016-May-23 11:32N 54°23' E 018°40'0 0.0
2016-May-23 10:29N 54°23' E 018°40'0 0.0
2016-May-23 09:32N 54°23' E 018°40'0 0.0
2016-May-23 08:32N 54°23' E 018°40'0 0.0
2016-May-23 07:32N 54°23' E 018°40'0 0.0
2016-May-23 06:32N 54°23' E 018°40'0 0.0
2016-May-23 05:32N 54°23' E 018°40'0 0.0
2016-May-23 04:32N 54°23' E 018°40'1 1.1
2016-May-23 03:33N 54°24' E 018°40'3 2.6
2016-May-23 02:32N 54°27' E 018°39'0 0.0
2016-May-23 01:32N 54°27' E 018°39'0 0.0
2016-May-23 00:32N 54°27' E 018°39'0 0.0
2016-May-22 23:32N 54°27' E 018°39'0 0.0
2016-May-22 22:32N 54°27' E 018°39'0 0.0
2016-May-22 21:32N 54°27' E 018°39'0 0.0
2016-May-22 20:32N 54°27' E 018°39'0 0.0
2016-May-22 19:32N 54°27' E 018°39'0 0.1
2016-May-22 18:33N 54°27' E 018°39'8 8.4
2016-May-22 17:33N 54°33' E 018°49'8 7.8
2016-May-22 16:33N 54°40' E 018°53'9 9.3
2016-May-22 15:33N 54°46' E 018°41'9 9.5
2016-May-22 14:33N 54°52' E 018°27'9 9.5
2016-May-22 13:33N 54°53' E 018°11'9 9.4
2016-May-22 12:33N 54°53' E 017°55'69 9.9
2016-May-22 05:33N 54°54' E 015°54'1110.1
2016-May-22 04:29N 54°55' E 015°36'910.0
2016-May-22 03:33N 54°56' E 015°20'1010.2
2016-May-22 02:33N 54°57' E 015°02'1010.1
2016-May-22 01:34N 54°58' E 014°44'1010.0
2016-May-22 00:33N 55°02' E 014°29'10 9.8
2016-May-21 23:33N 55°07' E 014°14'10 9.7
2016-May-21 22:33N 55°10' E 013°58'10 9.9
2016-May-21 21:33N 55°11' E 013°41'1010.0
2016-May-21 20:33N 55°12' E 013°23'1010.2
2016-May-21 19:33N 55°14' E 013°06'10 9.8
2016-May-21 18:33N 55°16' E 012°49'8 8.0
2016-May-21 17:33N 55°22' E 012°39'10 9.8
2016-May-21 16:33N 55°31' E 012°42'9 9.1
2016-May-21 15:33N 55°40' E 012°41'9 9.0
2016-May-21 14:33N 55°49' E 012°41'9 9.3
2016-May-21 13:33N 55°59' E 012°38'8 8.4
2016-May-21 12:33N 56°06' E 012°32'1010.5
2016-May-21 11:33N 56°12' E 012°17'29 9.5
2016-May-21 08:33N 56°38' E 011°55'1110.8
2016-May-21 07:33N 56°49' E 011°49'1110.6
2016-May-21 06:33N 56°59' E 011°43'1010.2
2016-May-21 05:33N 57°08' E 011°37'1110.5
2016-May-21 04:33N 57°18' E 011°30'1110.6
2016-May-21 03:33N 57°28' E 011°23'1110.6
2016-May-21 02:33N 57°38' E 011°18'1010.2
2016-May-21 01:33N 57°48' E 011°14'10 9.6
2016-May-21 00:33N 57°58' E 011°09'10 9.5
2016-May-20 23:33N 58°07' E 011°06'9 9.1
2016-May-20 22:33N 58°16' E 011°05'8 8.3
2016-May-20 21:33N 58°24' E 011°07'8 8.5
2016-May-20 20:33N 58°33' E 011°07'9 9.1
2016-May-20 19:33N 58°42' E 011°04'8 8.3
2016-May-20 18:33N 58°50' E 011°06'10 9.6
2016-May-20 17:34N 58°59' E 011°01'9 9.0
2016-May-20 16:33N 59°05' E 010°48'9 9.2
2016-May-20 15:33N 59°14' E 010°43'9 9.3
2016-May-20 14:33N 59°23' E 010°36'9 8.7
2016-May-20 13:33N 59°32' E 010°35'9 9.3
2016-May-20 12:33N 59°41' E 010°37'9 8.7
2016-May-20 11:33N 59°50' E 010°35'  
2016-May-17 06:33N 59°53' E 010°40'9 8.8
2016-May-17 05:29N 59°44' E 010°35'8 8.2
2016-May-17 04:34N 59°37' E 010°38'9 8.9
2016-May-17 03:34N 59°28' E 010°35'9 8.8
2016-May-17 02:34N 59°19' E 010°37'9 9.1
2016-May-17 01:34N 59°10' E 010°39'9 8.8
2016-May-17 00:33N 59°01' E 010°36'9 8.8
2016-May-16 23:34N 58°53' E 010°41'8 8.2
2016-May-16 22:33N 58°45' E 010°46'8 8.3
2016-May-16 21:33N 58°37' E 010°51'9 8.7
2016-May-16 20:34N 58°29' E 010°56'8 8.5
2016-May-16 19:34N 58°21' E 011°01'9 8.9
2016-May-16 18:33N 58°12' E 011°06'8 8.3
2016-May-16 17:33N 58°04' E 011°10'8 8.1
2016-May-16 16:34N 57°57' E 011°14'8 8.1
2016-May-16 15:34N 57°49' E 011°17'8 7.7
2016-May-16 14:34N 57°41' E 011°21'  

Dump ship's entire track history